Time;durP1;ratioP1;P1;durP2;ratioP2;P2;SDS_P1;SDS_P2;PMS_P1;PMS_P2;Temp;Humidity;BMP_temperature;BMP_pressure;BME280_temperature;BME280_humidity;BME280_pressure;Samples;Min_cycle;Max_cycle;Signal;HPM_P1;HPM_P2
2023/11/10 00:00:46;;;;;;;1.90;1.15;;;11.30;66.80;13.00;99386.00;;;;5003295;28;20238;-76
2023/11/10 00:03:13;;;;;;;1.35;1.02;;;11.30;66.90;13.00;99388.00;;;;5008935;28;20216;-77
2023/11/10 00:05:42;;;;;;;2.53;1.30;;;11.40;67.10;13.00;99376.00;;;;5009111;28;21058;-77
2023/11/10 00:08:13;;;;;;;2.88;1.60;;;11.40;67.10;13.10;99378.00;;;;5006024;28;20201;-77
2023/11/10 00:10:40;;;;;;;3.05;1.42;;;11.40;67.10;13.10;99371.00;;;;5006892;28;20205;-77
2023/11/10 00:13:08;;;;;;;2.20;1.52;;;11.40;67.10;13.10;99376.00;;;;5007966;28;20216;-77
2023/11/10 00:15:35;;;;;;;2.22;1.40;;;11.40;67.20;13.20;99367.00;;;;5011646;28;20197;-76
2023/11/10 00:18:02;;;;;;;4.40;1.40;;;11.50;67.30;13.20;99365.00;;;;5011870;28;20292;-77
2023/11/10 00:20:31;;;;;;;1.75;1.50;;;11.50;67.30;13.20;99367.00;;;;5005915;28;20221;-76
2023/11/10 00:22:59;;;;;;;2.00;1.17;;;11.50;67.40;13.20;99357.00;;;;5001452;28;20251;-77
2023/11/10 00:25:27;;;;;;;2.03;1.48;;;11.50;67.30;13.30;99354.00;;;;5010578;28;20205;-76
2023/11/10 00:27:55;;;;;;;2.00;1.52;;;11.60;67.40;13.30;99357.00;;;;5008442;28;20240;-77
2023/11/10 00:30:22;;;;;;;2.60;1.58;;;11.60;67.40;13.30;99348.00;;;;5009118;28;20312;-77
2023/11/10 00:32:49;;;;;;;2.20;1.50;;;11.60;67.30;13.40;99349.00;;;;5006394;28;20581;-76
2023/11/10 00:35:16;;;;;;;2.20;1.48;;;11.60;67.30;13.40;99343.00;;;;5002939;28;20197;-76
2023/11/10 00:37:43;;;;;;;3.25;1.63;;;11.70;67.30;13.40;99342.00;;;;5009540;28;20209;-76
2023/11/10 00:40:12;;;;;;;2.65;1.50;;;11.70;67.20;13.40;99339.00;;;;5009357;28;20201;-77
2023/11/10 00:42:39;;;;;;;3.53;1.45;;;11.70;67.20;13.50;99338.00;;;;5010874;28;20208;-77
2023/11/10 00:45:08;;;;;;;2.05;1.75;;;11.80;67.20;13.50;99337.00;;;;5007358;28;20197;-77
2023/11/10 00:47:35;;;;;;;2.45;1.58;;;11.80;67.20;13.50;99337.00;;;;5011836;28;20706;-76
2023/11/10 00:50:02;;;;;;;2.35;1.58;;;11.80;67.20;13.50;99329.00;;;;5010125;28;20205;-77
2023/11/10 00:52:29;;;;;;;2.30;1.10;;;11.80;67.10;13.50;99339.00;;;;5007024;28;20197;-77
2023/11/10 00:54:55;;;;;;;1.55;1.38;;;11.80;67.10;13.50;99330.00;;;;5008161;28;20288;-77
2023/11/10 00:57:24;;;;;;;2.08;1.55;;;11.80;67.00;13.50;99335.00;;;;5008091;28;20197;-77
2023/11/10 00:59:51;;;;;;;2.03;1.33;;;11.80;67.00;13.50;99345.00;;;;5008926;28;20214;-77
2023/11/10 01:02:18;;;;;;;2.45;1.63;;;11.80;67.00;13.50;99341.00;;;;5007658;28;20235;-77
2023/11/10 01:04:45;;;;;;;2.45;1.50;;;11.80;67.00;13.50;99339.00;;;;5007324;28;20675;-77
2023/11/10 01:07:12;;;;;;;2.63;1.02;;;11.80;67.00;13.60;99337.00;;;;5009357;28;20188;-77
2023/11/10 01:09:39;;;;;;;2.05;1.23;;;11.90;67.00;13.60;99332.00;;;;5004366;28;20200;-77
2023/11/10 01:12:08;;;;;;;4.75;2.28;;;11.90;67.00;13.50;99319.00;;;;5007412;28;20681;-77
2023/11/10 01:14:37;;;;;;;2.95;1.33;;;11.90;67.00;13.50;99312.00;;;;5008633;28;20196;-77
2023/11/10 01:17:05;;;;;;;1.77;1.30;;;11.90;67.00;13.60;99318.00;;;;5007569;28;20232;-77
2023/11/10 01:19:32;;;;;;;2.95;1.45;;;11.90;67.00;13.60;99312.00;;;;5001741;28;20200;-77
2023/11/10 01:21:59;;;;;;;4.22;1.70;;;11.90;67.00;13.60;99322.00;;;;5007614;28;20569;-77
2023/11/10 01:24:26;;;;;;;2.03;1.23;;;11.90;67.00;13.60;99314.00;;;;5007649;28;20311;-77
2023/11/10 01:26:53;;;;;;;3.53;1.60;;;11.90;67.00;13.60;99316.00;;;;5007576;28;20224;-77
2023/11/10 01:29:20;;;;;;;2.58;1.02;;;11.90;67.00;13.60;99310.00;;;;5008279;28;20204;-77
2023/11/10 01:31:49;;;;;;;1.90;1.13;;;11.90;67.00;13.60;99305.00;;;;5005968;28;20197;-76
2023/11/10 01:34:16;;;;;;;1.25;1.13;;;12.00;67.10;13.60;99306.00;;;;5015892;28;20209;-77
2023/11/10 01:36:43;;;;;;;1.95;1.20;;;12.00;67.00;13.60;99300.00;;;;5007044;28;20255;-77
2023/11/10 01:39:11;;;;;;;1.83;1.08;;;12.00;67.00;13.60;99309.00;;;;5007237;28;20205;-76
2023/11/10 01:41:39;;;;;;;2.58;1.30;;;12.00;66.90;13.60;99313.00;;;;5007504;28;20295;-76
2023/11/10 01:44:07;;;;;;;2.00;1.20;;;12.00;66.80;13.60;99307.00;;;;5008125;28;20280;-76
2023/11/10 01:46:48;;;;;;;1.13;0.90;;;12.00;66.80;13.50;99307.00;;;;5005602;28;20233;-76
2023/11/10 01:49:20;;;;;;;1.98;1.17;;;12.00;66.70;13.60;99310.00;;;;5007884;28;20201;-76
2023/11/10 01:51:51;;;;;;;3.17;1.13;;;12.00;66.80;13.60;99314.00;;;;5003406;28;20197;-76
2023/11/10 01:54:20;;;;;;;2.05;0.90;;;12.00;66.80;13.60;99300.00;;;;5007442;28;20199;-77
2023/11/10 01:56:48;;;;;;;3.10;1.25;;;12.00;66.80;13.60;99296.00;;;;5005353;28;20197;-77
2023/11/10 01:59:17;;;;;;;2.42;1.42;;;12.00;66.80;13.60;99295.00;;;;5005490;28;20200;-77
2023/11/10 02:01:45;;;;;;;1.92;0.93;;;12.00;66.80;13.70;99295.00;;;;5007359;28;20287;-76
2023/11/10 02:04:16;;;;;;;1.27;0.90;;;12.00;66.80;13.70;99297.00;;;;5008596;28;20984;-77
2023/11/10 02:06:44;;;;;;;2.03;1.40;;;12.00;66.80;13.70;99290.00;;;;5008918;28;20207;-76
2023/11/10 02:09:12;;;;;;;1.60;1.00;;;12.00;66.70;13.70;99290.00;;;;5007163;28;20205;-77
2023/11/10 02:11:40;;;;;;;2.92;1.35;;;12.00;66.70;13.70;99297.00;;;;5006892;28;20215;-76
2023/11/10 02:14:08;;;;;;;2.05;1.20;;;12.00;66.70;13.60;99290.00;;;;5008344;28;20200;-76
2023/11/10 02:16:36;;;;;;;1.48;0.80;;;12.10;66.70;13.60;99289.00;;;;5008457;28;20197;-77
2023/11/10 02:19:05;;;;;;;2.50;1.30;;;12.00;66.60;13.60;99280.00;;;;5006415;28;20205;-76
2023/11/10 02:21:34;;;;;;;3.63;1.23;;;12.10;66.60;13.60;99290.00;;;;5007077;28;20224;-77
2023/11/10 02:24:09;;;;;;;3.42;1.23;;;12.00;66.60;13.60;99294.00;;;;5010205;28;20201;-77
2023/11/10 02:26:38;;;;;;;1.90;1.08;;;12.00;66.60;13.70;99289.00;;;;5006396;28;20220;-77
2023/11/10 02:29:07;;;;;;;1.33;1.20;;;12.00;66.60;13.70;99296.00;;;;5004405;28;20339;-77
2023/11/10 02:31:34;;;;;;;3.03;1.20;;;12.00;66.60;13.70;99288.00;;;;5005817;28;20570;-77
2023/11/10 02:34:02;;;;;;;2.47;1.08;;;12.10;66.70;13.70;99291.00;;;;5007031;28;20197;-76
2023/11/10 02:36:29;;;;;;;1.27;1.02;;;12.10;66.70;13.70;99289.00;;;;5004183;28;20229;-77
2023/11/10 02:38:57;;;;;;;3.25;1.42;;;12.10;66.70;13.70;99294.00;;;;5007785;28;20208;-76
2023/11/10 02:41:24;;;;;;;1.23;1.02;;;12.10;66.70;13.70;99292.00;;;;5010052;28;20578;-76
2023/11/10 02:43:53;;;;;;;2.50;1.38;;;12.10;66.70;13.70;99304.00;;;;5007388;28;20189;-76
2023/11/10 02:46:20;;;;;;;2.03;1.20;;;12.10;66.70;13.70;99294.00;;;;5006661;28;20706;-76
2023/11/10 02:48:47;;;;;;;1.42;1.20;;;12.10;66.60;13.70;99305.00;;;;5007778;28;20566;-76
2023/11/10 02:51:14;;;;;;;1.98;1.23;;;12.10;66.70;13.70;99305.00;;;;5007206;28;20208;-77
2023/11/10 02:53:42;;;;;;;4.40;1.33;;;12.20;66.60;13.80;99305.00;;;;5007816;28;20185;-76
2023/11/10 02:56:09;;;;;;;2.42;1.25;;;12.20;66.70;13.80;99305.00;;;;5005389;28;20229;-77
2023/11/10 02:58:36;;;;;;;1.92;1.20;;;12.20;66.60;13.80;99299.00;;;;5012757;28;20221;-77
2023/11/10 03:01:05;;;;;;;2.80;1.27;;;12.20;66.60;13.80;99294.00;;;;5006812;28;20208;-76
2023/11/10 03:03:32;;;;;;;1.42;0.75;;;12.20;66.50;13.80;99295.00;;;;5006471;28;20201;-76
2023/11/10 03:06:00;;;;;;;1.10;0.85;;;12.20;66.40;13.80;99288.00;;;;5005091;28;20198;-77
2023/11/10 03:08:26;;;;;;;0.88;0.60;;;12.20;66.40;13.80;99295.00;;;;5007073;28;20208;-76
2023/11/10 03:10:54;;;;;;;1.67;0.93;;;12.20;66.40;13.80;99294.00;;;;5007761;28;20201;-76
2023/11/10 03:13:21;;;;;;;1.55;0.77;;;12.20;66.40;13.80;99295.00;;;;5005297;28;20197;-77
2023/11/10 03:15:48;;;;;;;1.50;1.08;;;12.20;66.50;13.80;99286.00;;;;5006635;28;20189;-76
2023/11/10 03:18:16;;;;;;;1.73;0.95;;;12.20;66.50;13.80;99285.00;;;;5006951;28;20211;-76
2023/11/10 03:20:44;;;;;;;1.75;0.90;;;12.20;66.40;13.90;99286.00;;;;5007332;28;20199;-76
2023/11/10 03:23:11;;;;;;;2.33;0.90;;;12.30;66.40;13.80;99282.00;;;;5008065;28;20239;-77
2023/11/10 03:25:38;;;;;;;1.17;0.80;;;12.30;66.40;13.90;99283.00;;;;5008548;28;20240;-77
2023/11/10 03:28:06;;;;;;;2.03;0.90;;;12.30;66.40;13.80;99284.00;;;;5009848;28;20794;-76
2023/11/10 03:30:33;;;;;;;1.75;0.90;;;12.30;66.40;13.90;99280.00;;;;5010472;28;20207;-77
2023/11/10 03:33:00;;;;;;;1.58;0.95;;;12.30;66.30;13.90;99286.00;;;;5012965;28;20198;-77
2023/11/10 03:35:30;;;;;;;1.85;0.88;;;12.30;66.30;13.80;99275.00;;;;5008060;28;20671;-77
2023/11/10 03:37:57;;;;;;;2.20;1.30;;;12.30;66.30;13.90;99282.00;;;;5009754;28;20554;-77
2023/11/10 03:40:25;;;;;;;1.60;1.05;;;12.30;66.40;13.90;99282.00;;;;5009725;28;20291;-76
2023/11/10 03:42:52;;;;;;;1.98;0.88;;;12.30;66.40;13.90;99273.00;;;;5010138;28;20549;-76
2023/11/10 03:45:19;;;;;;;2.25;1.00;;;12.30;66.40;13.90;99284.00;;;;5008510;28;20947;-76
2023/11/10 03:47:46;;;;;;;3.63;1.02;;;12.30;66.40;13.90;99285.00;;;;5009400;28;20235;-76
2023/11/10 03:50:13;;;;;;;1.48;0.88;;;12.30;66.30;13.90;99272.00;;;;5010680;28;20679;-76
2023/11/10 03:52:42;;;;;;;1.27;1.10;;;12.30;66.30;13.90;99283.00;;;;5009358;28;20215;-77
2023/11/10 03:55:09;;;;;;;0.82;0.73;;;12.30;66.30;13.90;99277.00;;;;5007611;28;20643;-76
2023/11/10 03:57:36;;;;;;;1.98;1.10;;;12.30;66.30;13.90;99276.00;;;;5010215;28;20232;-76
2023/11/10 04:00:03;;;;;;;1.70;1.02;;;12.30;66.30;13.90;99285.00;;;;5009985;28;20201;-76
2023/11/10 04:02:30;;;;;;;3.15;0.75;;;12.30;66.30;13.90;99278.00;;;;5008617;28;20643;-77
2023/11/10 04:04:57;;;;;;;2.78;0.95;;;12.30;66.30;13.90;99282.00;;;;5008668;28;20599;-77
2023/11/10 04:07:24;;;;;;;2.25;0.80;;;12.30;66.30;13.90;99281.00;;;;5009716;28;20201;-76
2023/11/10 04:09:54;;;;;;;1.30;0.73;;;12.30;66.40;13.90;99280.00;;;;5008101;28;20193;-76
2023/11/10 04:12:22;;;;;;;1.77;0.90;;;12.30;66.40;13.90;99284.00;;;;5010278;28;20255;-77
2023/11/10 04:14:49;;;;;;;3.17;1.08;;;12.30;66.40;13.90;99284.00;;;;5010377;28;20597;-76
2023/11/10 04:17:16;;;;;;;1.90;0.95;;;12.30;66.30;13.90;99289.00;;;;5009072;28;20681;-76
2023/11/10 04:19:43;;;;;;;2.08;0.80;;;12.30;66.30;13.90;99288.00;;;;5008265;28;20203;-77
2023/11/10 04:22:10;;;;;;;1.23;0.98;;;12.30;66.30;13.90;99285.00;;;;5009584;28;20221;-77
2023/11/10 04:24:37;;;;;;;2.65;1.15;;;12.30;66.30;13.90;99282.00;;;;5006177;28;20204;-77
2023/11/10 04:27:06;;;;;;;2.30;0.95;;;12.30;66.30;13.90;99286.00;;;;5008213;28;20316;-77
2023/11/10 04:29:33;;;;;;;1.23;0.90;;;12.30;66.40;13.90;99289.00;;;;5000157;28;20212;-77
2023/11/10 04:32:00;;;;;;;2.42;0.85;;;12.30;66.30;13.90;99292.00;;;;5007963;28;20205;-77
2023/11/10 04:34:28;;;;;;;3.28;1.10;;;12.30;67.00;13.90;99296.00;;;;5007905;28;20205;-77
2023/11/10 04:36:56;;;;;;;1.10;0.90;;;12.30;66.30;13.90;99299.00;;;;5009186;28;20197;-76
2023/11/10 04:39:24;;;;;;;1.70;0.90;;;12.30;66.30;13.90;99300.00;;;;5007098;28;20227;-76
2023/11/10 04:41:54;;;;;;;4.13;1.40;;;12.30;66.30;13.90;99300.00;;;;5009171;28;20224;-77
2023/11/10 04:44:23;;;;;;;1.70;1.00;;;12.30;66.30;13.90;99296.00;;;;5008329;28;20193;-77
2023/11/10 04:46:50;;;;;;;1.17;0.95;;;12.30;66.30;13.90;99294.00;;;;5008828;28;20244;-76
2023/11/10 04:49:17;;;;;;;1.90;1.00;;;12.30;66.30;13.90;99291.00;;;;5005161;28;20205;-76
2023/11/10 04:51:44;;;;;;;4.18;1.67;;;12.30;66.40;13.90;99304.00;;;;5009394;28;20734;-77
2023/11/10 04:54:12;;;;;;;4.65;0.90;;;12.30;66.30;13.90;99305.00;;;;5008903;28;20208;-77
2023/11/10 04:56:44;;;;;;;3.88;1.15;;;12.30;66.20;13.90;99300.00;;;;5009376;28;20201;-77
2023/11/10 04:59:12;;;;;;;2.60;0.82;;;12.30;66.20;13.90;99299.00;;;;5006163;28;20201;-76
2023/11/10 05:01:40;;;;;;;2.67;0.98;;;12.30;66.20;13.90;99299.00;;;;5006878;28;20204;-77
2023/11/10 05:04:07;;;;;;;1.42;0.68;;;12.30;66.30;13.90;99304.00;;;;5008885;28;20232;-76
2023/11/10 05:06:35;;;;;;;3.08;1.13;;;12.30;66.10;13.90;99299.00;;;;5008353;28;20205;-76
2023/11/10 05:09:06;;;;;;;1.90;0.77;;;12.30;66.20;14.00;99291.00;;;;5002875;28;20738;-77
2023/11/10 05:11:34;;;;;;;3.05;0.70;;;12.30;66.20;13.90;99293.00;;;;5008130;28;20197;-76
2023/11/10 05:14:02;;;;;;;2.13;0.60;;;12.30;66.20;13.90;99288.00;;;;5011057;28;20215;-76
2023/11/10 05:16:29;;;;;;;2.45;0.85;;;12.30;66.00;13.90;99298.00;;;;5008009;28;20197;-77
2023/11/10 05:18:58;;;;;;;1.92;0.68;;;12.30;66.10;13.90;99294.00;;;;5007446;28;20555;-76
2023/11/10 05:21:26;;;;;;;1.77;0.75;;;12.30;66.00;13.90;99294.00;;;;5007092;28;20197;-77
2023/11/10 05:23:53;;;;;;;4.05;0.68;;;12.30;66.00;13.90;99291.00;;;;5008376;28;20221;-76
2023/11/10 05:26:20;;;;;;;1.23;0.65;;;12.30;66.10;13.80;99295.00;;;;5008621;28;20307;-76
2023/11/10 05:28:47;;;;;;;1.30;0.85;;;12.30;66.00;13.80;99297.00;;;;5006922;28;20197;-76
2023/11/10 05:31:15;;;;;;;3.70;1.13;;;12.30;65.90;13.80;99294.00;;;;5007127;28;20225;-77
2023/11/10 05:33:42;;;;;;;0.95;0.60;;;12.20;65.80;13.80;99289.00;;;;5007075;28;20300;-77
2023/11/10 05:36:11;;;;;;;2.13;0.68;;;12.20;65.70;13.70;99288.00;;;;5006562;28;20289;-77
2023/11/10 05:38:38;;;;;;;1.27;0.57;;;12.20;65.60;13.70;99289.00;;;;5005684;28;20212;-76
2023/11/10 05:41:05;;;;;;;3.90;0.98;;;12.10;65.50;13.60;99293.00;;;;5004975;28;20573;-76
2023/11/10 05:43:32;;;;;;;1.40;0.90;;;12.10;65.40;13.60;99289.00;;;;5003869;28;20247;-77
2023/11/10 05:45:59;;;;;;;2.35;0.80;;;12.00;65.50;13.50;99300.00;;;;5003922;28;20232;-76
2023/11/10 05:48:26;;;;;;;4.07;1.08;;;11.90;65.40;13.50;99307.00;;;;5009625;28;20201;-77
2023/11/10 05:50:53;;;;;;;2.92;0.80;;;11.90;65.40;13.40;99298.00;;;;5007722;28;20574;-77
2023/11/10 05:53:22;;;;;;;1.50;0.55;;;11.90;65.40;13.40;99308.00;;;;5008296;28;20283;-77
2023/11/10 05:55:50;;;;;;;1.77;0.52;;;11.80;65.40;13.30;99317.00;;;;5007303;28;20189;-76
2023/11/10 05:58:18;;;;;;;3.05;0.47;;;11.70;65.40;13.20;99308.00;;;;5008345;28;20209;-77
2023/11/10 06:00:45;;;;;;;3.28;1.10;;;11.70;65.50;13.20;99313.00;;;;5006990;28;20701;-76
2023/11/10 06:03:12;;;;;;;1.63;0.85;;;11.60;65.50;13.20;99315.00;;;;5006574;28;20225;-76
2023/11/10 06:05:39;;;;;;;1.50;0.60;;;11.60;65.60;13.10;99316.00;;;;5008097;28;20201;-77
2023/11/10 06:08:06;;;;;;;2.45;0.50;;;11.50;65.60;13.10;99319.00;;;;5005618;28;20599;-75
2023/11/10 06:10:34;;;;;;;1.83;0.70;;;11.50;65.70;13.10;99315.00;;;;5010094;28;20197;-76
2023/11/10 06:13:02;;;;;;;2.22;0.70;;;11.50;65.90;13.10;99319.00;;;;5005127;28;20196;-76
2023/11/10 06:15:31;;;;;;;2.83;0.70;;;11.40;66.00;13.00;99320.00;;;;5018855;28;20561;-76
2023/11/10 06:17:58;;;;;;;1.10;0.60;;;11.40;66.00;13.00;99313.00;;;;5012466;28;20256;-76
2023/11/10 06:20:34;;;;;;;2.70;0.85;;;11.40;66.20;12.90;99317.00;;;;5008193;28;20185;-76
2023/11/10 06:23:05;;;;;;;2.55;0.70;;;11.40;66.30;13.00;99312.00;;;;5014773;28;20224;-76
2023/11/10 06:25:34;;;;;;;1.42;0.52;;;11.30;66.40;13.00;99309.00;;;;5017359;28;20246;-76
2023/11/10 06:28:01;;;;;;;1.48;0.88;;;11.30;66.40;13.00;99318.00;;;;5007783;28;20227;-75
2023/11/10 06:30:28;;;;;;;2.28;0.55;;;11.30;66.40;13.00;99326.00;;;;5007871;28;20197;-75
2023/11/10 06:32:55;;;;;;;2.75;0.80;;;11.30;66.50;13.00;99322.00;;;;5003832;28;20211;-75
2023/11/10 06:35:22;;;;;;;2.92;0.70;;;11.30;66.50;13.00;99327.00;;;;5007402;28;20581;-76
2023/11/10 06:37:49;;;;;;;2.35;0.73;;;11.30;66.50;13.00;99326.00;;;;5007186;28;20208;-76
2023/11/10 06:40:17;;;;;;;2.03;0.63;;;11.40;66.60;13.00;99326.00;;;;5003569;28;20215;-75
2023/11/10 06:42:45;;;;;;;3.80;0.55;;;11.30;66.60;13.00;99326.00;;;;5004514;28;20613;-75
2023/11/10 06:45:12;;;;;;;2.35;1.17;;;11.40;66.70;13.10;99335.00;;;;5007727;28;20670;-75
2023/11/10 06:47:40;;;;;;;2.55;1.00;;;11.40;66.60;13.00;99326.00;;;;4999520;28;20231;-75
2023/11/10 06:50:07;;;;;;;4.53;0.95;;;11.30;66.50;13.00;99331.00;;;;5006111;28;20207;-75
2023/11/10 06:52:35;;;;;;;3.25;1.00;;;11.30;66.50;13.00;99330.00;;;;5004275;28;20303;-77
2023/11/10 06:55:02;;;;;;;2.40;0.75;;;11.30;66.60;13.00;99338.00;;;;5002342;28;20216;-75
2023/11/10 06:57:29;;;;;;;2.60;0.80;;;11.30;66.70;13.00;99329.00;;;;5005862;28;20264;-75
2023/11/10 06:59:57;;;;;;;1.63;0.50;;;11.30;66.70;13.00;99323.00;;;;5003713;28;20201;-75
2023/11/10 07:02:24;;;;;;;2.47;0.82;;;11.30;66.70;13.00;99332.00;;;;5003186;28;20598;-75
2023/11/10 07:04:51;;;;;;;3.80;1.38;;;11.30;66.70;13.00;99327.00;;;;5005442;28;20520;-75
2023/11/10 07:07:18;;;;;;;2.15;0.80;;;11.20;67.30;13.10;99338.00;;;;5010683;28;20596;-74
2023/11/10 07:09:45;;;;;;;1.58;0.70;;;11.30;67.50;13.10;99326.00;;;;5010271;28;20315;-75
2023/11/10 07:12:14;;;;;;;2.30;1.00;;;11.30;67.20;13.10;99337.00;;;;5009257;28;20218;-75
2023/11/10 07:14:42;;;;;;;1.80;0.90;;;11.40;67.10;13.20;99337.00;;;;5010766;28;20629;-74
2023/11/10 07:17:11;;;;;;;2.90;0.70;;;11.40;67.10;13.10;99343.00;;;;5011297;28;20201;-75
2023/11/10 07:19:38;;;;;;;2.15;1.15;;;11.40;67.00;13.20;99334.00;;;;5010305;28;20282;-74
2023/11/10 07:22:05;;;;;;;1.27;0.70;;;11.50;66.90;13.20;99345.00;;;;5010426;28;20205;-74
2023/11/10 07:24:32;;;;;;;5.05;1.25;;;11.50;66.90;13.20;99338.00;;;;5009534;28;20221;-75
2023/11/10 07:26:59;;;;;;;1.83;0.80;;;11.50;67.00;13.20;99341.00;;;;5009049;28;20701;-75
2023/11/10 07:29:26;;;;;;;2.95;0.95;;;11.50;67.00;13.20;99338.00;;;;5012129;28;20197;-75
2023/11/10 07:31:55;;;;;;;3.08;1.25;;;11.50;67.00;13.20;99340.00;;;;5009903;28;20581;-74
2023/11/10 07:34:23;;;;;;;1.52;1.17;;;11.50;67.00;13.20;99346.00;;;;5006093;28;20224;-74
2023/11/10 07:36:51;;;;;;;1.88;0.80;;;11.50;67.00;13.20;99337.00;;;;5011232;28;20203;-75
2023/11/10 07:39:21;;;;;;;2.40;1.10;;;11.50;67.00;13.30;99339.00;;;;5009718;28;20212;-74
2023/11/10 07:41:48;;;;;;;3.50;1.00;;;11.50;67.00;13.30;99339.00;;;;5010098;28;20304;-75
2023/11/10 07:44:15;;;;;;;2.38;0.93;;;11.60;67.00;13.30;99339.00;;;;5011064;28;20223;-74
2023/11/10 07:46:42;;;;;;;0.93;0.82;;;11.60;67.00;13.30;99339.00;;;;5007032;28;20229;-75
2023/11/10 07:49:11;;;;;;;2.63;1.30;;;11.60;67.10;13.30;99337.00;;;;5009846;28;20201;-75
2023/11/10 07:51:39;;;;;;;3.53;1.00;;;11.60;67.00;13.30;99323.00;;;;5007153;28;21007;-74
2023/11/10 07:54:06;;;;;;;1.55;1.00;;;11.70;67.10;13.30;99330.00;;;;5010602;28;20205;-74
2023/11/10 07:56:33;;;;;;;1.70;0.90;;;11.70;67.00;13.30;99333.00;;;;5008907;28;20628;-75
2023/11/10 07:59:01;;;;;;;3.78;1.17;;;11.70;67.00;13.30;99330.00;;;;5009834;28;20205;-75
2023/11/10 08:01:28;;;;;;;2.03;1.08;;;11.70;66.90;13.30;99328.00;;;;5008019;28;20204;-75
2023/11/10 08:03:54;;;;;;;1.80;0.85;;;11.70;66.90;13.40;99330.00;;;;5004005;28;20225;-75
2023/11/10 08:06:22;;;;;;;3.08;1.23;;;11.70;66.90;13.40;99336.00;;;;5008434;28;20197;-74
2023/11/10 08:08:51;;;;;;;3.80;1.15;;;11.70;66.90;13.40;99334.00;;;;5008126;28;20205;-75
2023/11/10 08:11:19;;;;;;;2.03;0.95;;;11.70;66.90;13.40;99331.00;;;;5005312;28;20204;-75
2023/11/10 08:13:46;;;;;;;6.03;1.80;;;11.70;66.90;13.40;99335.00;;;;5006101;28;20232;-75
2023/11/10 08:16:14;;;;;;;3.15;1.30;;;11.70;67.00;13.50;99339.00;;;;5004046;28;20204;-75
2023/11/10 08:18:42;;;;;;;3.15;1.08;;;11.80;67.10;13.50;99348.00;;;;5002392;28;20189;-75
2023/11/10 08:21:17;;;;;;;2.55;1.10;;;11.80;67.10;13.40;99349.00;;;;5010027;28;20207;-75
2023/11/10 08:23:44;;;;;;;3.05;1.17;;;11.80;67.10;13.60;99344.00;;;;5007142;28;20232;-75
2023/11/10 08:26:13;;;;;;;1.40;0.80;;;11.90;67.20;13.60;99346.00;;;;5009902;28;20201;-75
2023/11/10 08:28:41;;;;;;;24.30;3.92;;;11.80;67.10;13.60;99346.00;;;;5001176;28;20208;-75
2023/11/10 08:31:08;;;;;;;12.05;1.80;;;11.90;67.20;13.70;99354.00;;;;5016266;28;20209;-75
2023/11/10 08:33:35;;;;;;;7.40;1.70;;;11.90;67.20;13.70;99342.00;;;;5003506;28;20217;-75
2023/11/10 08:36:02;;;;;;;13.65;2.22;;;12.00;67.30;13.80;99339.00;;;;5008758;28;20692;-75
2023/11/10 08:38:31;;;;;;;7.15;1.98;;;12.00;67.20;13.80;99336.00;;;;5008117;28;20200;-75
2023/11/10 08:40:59;;;;;;;4.53;1.73;;;12.00;67.10;13.80;99337.00;;;;5007739;28;20284;-75
2023/11/10 08:43:27;;;;;;;13.65;2.83;;;12.10;67.30;13.90;99324.00;;;;5002875;28;20220;-75
2023/11/10 08:45:54;;;;;;;4.35;1.58;;;12.10;67.20;13.90;99328.00;;;;5005776;28;20282;-75
2023/11/10 08:48:21;;;;;;;3.53;1.55;;;12.20;67.20;14.00;99327.00;;;;5005731;28;20203;-75
2023/11/10 08:50:48;;;;;;;4.05;1.50;;;12.20;67.20;14.00;99326.00;;;;5006075;28;20201;-75
2023/11/10 08:53:15;;;;;;;4.65;1.38;;;12.30;67.30;14.10;99320.00;;;;4998687;28;20213;-75
2023/11/10 08:55:42;;;;;;;2.75;1.27;;;12.30;67.20;14.10;99316.00;;;;5007088;28;20200;-76
2023/11/10 08:58:09;;;;;;;3.53;1.17;;;12.40;67.00;14.10;99326.00;;;;5006706;28;20209;-76
2023/11/10 09:00:38;;;;;;;3.72;1.35;;;12.40;67.00;14.10;99327.00;;;;5006368;28;20193;-75
2023/11/10 09:03:05;;;;;;;3.03;1.25;;;12.40;66.80;14.20;99330.00;;;;5007436;28;20299;-75
2023/11/10 09:05:32;;;;;;;4.43;1.63;;;12.50;66.70;14.20;99323.00;;;;5007064;28;20200;-75
2023/11/10 09:07:59;;;;;;;2.70;1.38;;;12.50;66.60;14.20;99318.00;;;;5006470;28;20211;-75
2023/11/10 09:10:26;;;;;;;4.85;1.40;;;12.50;66.50;14.20;99318.00;;;;5006089;28;20215;-75
2023/11/10 09:12:53;;;;;;;1.75;1.45;;;12.50;66.50;14.20;99322.00;;;;5010016;28;20750;-76
2023/11/10 09:15:24;;;;;;;1.85;1.20;;;12.50;66.30;14.20;99315.00;;;;5007383;28;20197;-75
2023/11/10 09:17:52;;;;;;;2.88;1.05;;;12.60;66.40;14.20;99324.00;;;;5007897;28;20306;-75
2023/11/10 09:20:21;;;;;;;5.78;1.02;;;12.60;66.30;14.30;99325.00;;;;5007897;28;20204;-76
2023/11/10 09:22:49;;;;;;;7.10;1.10;;;12.60;66.30;14.30;99321.00;;;;5009203;28;20193;-75
2023/11/10 09:25:20;;;;;;;3.35;0.98;;;12.60;66.40;14.30;99316.00;;;;5007949;28;20231;-75
2023/11/10 09:27:47;;;;;;;3.22;0.88;;;12.60;66.30;14.30;99312.00;;;;5007834;28;20216;-76
2023/11/10 09:30:15;;;;;;;18.00;2.25;;;12.60;66.30;14.30;99314.00;;;;5016019;28;20428;-75
2023/11/10 09:32:42;;;;;;;4.45;1.30;;;12.60;66.40;14.40;99298.00;;;;5000890;28;20207;-75
2023/11/10 09:35:13;;;;;;;2.95;0.95;;;12.70;66.40;14.30;99308.00;;;;5008782;28;20670;-75
2023/11/10 09:37:40;;;;;;;4.25;1.20;;;12.70;66.50;14.40;99312.00;;;;5007025;28;20211;-75
2023/11/10 09:40:09;;;;;;;4.25;1.00;;;12.70;66.50;14.40;99313.00;;;;5007406;28;20201;-76
2023/11/10 09:42:37;;;;;;;4.93;1.30;;;12.70;66.60;14.50;99321.00;;;;5007873;28;20211;-75
2023/11/10 09:45:06;;;;;;;4.78;1.50;;;12.80;66.60;14.50;99315.00;;;;5012612;28;20224;-75
2023/11/10 09:47:33;;;;;;;2.17;1.20;;;12.80;66.60;14.50;99316.00;;;;5005072;28;20308;-75
2023/11/10 09:50:06;;;;;;;6.22;1.25;;;12.90;66.60;14.50;99314.00;;;;5002703;28;20193;-75
2023/11/10 09:52:38;;;;;;;3.33;1.15;;;12.90;66.60;14.50;99311.00;;;;5008095;28;20280;-75
2023/11/10 09:55:06;;;;;;;1.73;0.90;;;12.90;66.30;14.60;99297.00;;;;4997212;28;20209;-75
2023/11/10 09:57:34;;;;;;;2.40;1.15;;;12.90;66.30;14.60;99305.00;;;;5005483;28;20634;-75
2023/11/10 10:00:03;;;;;;;2.80;1.30;;;12.90;66.10;14.60;99312.00;;;;5008612;28;20229;-76
2023/11/10 10:02:31;;;;;;;2.00;1.17;;;13.00;66.20;14.60;99304.00;;;;5008363;28;20204;-75
2023/11/10 10:04:59;;;;;;;4.20;1.92;;;13.00;66.20;14.70;99296.00;;;;5008450;28;20224;-75
2023/11/10 10:07:26;;;;;;;3.05;1.67;;;13.00;66.20;14.70;99280.00;;;;5008835;28;20229;-75
2023/11/10 10:09:54;;;;;;;3.97;1.38;;;13.00;66.20;14.70;99294.00;;;;5007901;28;20199;-75
2023/11/10 10:12:24;;;;;;;2.70;1.58;;;13.10;66.20;14.70;99287.00;;;;5004093;28;20229;-75
2023/11/10 10:14:56;;;;;;;4.75;1.67;;;13.10;66.00;14.70;99283.00;;;;5006743;28;20288;-76
2023/11/10 10:17:32;;;;;;;2.35;1.15;;;13.10;65.90;14.70;99289.00;;;;5007923;28;20674;-76
2023/11/10 10:20:13;;;;;;;1.80;0.93;;;13.10;65.80;14.70;99282.00;;;;5011676;28;20201;-75
2023/11/10 10:22:44;;;;;;;3.17;1.65;;;13.10;65.70;14.70;99289.00;;;;5007272;28;20196;-76
2023/11/10 10:25:14;;;;;;;3.05;1.23;;;13.10;65.70;14.80;99288.00;;;;5005138;28;20640;-75
2023/11/10 10:27:41;;;;;;;3.97;0.80;;;13.20;65.70;14.80;99283.00;;;;5004854;28;20299;-75
2023/11/10 10:30:09;;;;;;;2.22;1.05;;;13.20;65.70;14.80;99288.00;;;;5006462;28;20205;-75
2023/11/10 10:32:36;;;;;;;2.88;1.10;;;13.20;65.50;14.80;99295.00;;;;5003100;28;20256;-75
2023/11/10 10:35:04;;;;;;;4.10;1.02;;;13.20;65.60;14.80;99294.00;;;;5012088;28;20247;-75
2023/11/10 10:37:35;;;;;;;2.03;0.82;;;13.20;65.60;14.80;99294.00;;;;5009742;28;20204;-75
2023/11/10 10:40:02;;;;;;;2.80;1.10;;;13.20;65.50;14.80;99286.00;;;;5010201;28;20658;-75
2023/11/10 10:42:34;;;;;;;7.03;1.00;;;13.20;65.50;14.80;99291.00;;;;5010574;28;20942;-75
2023/11/10 10:45:04;;;;;;;1.77;0.63;;;13.20;65.50;14.80;99288.00;;;;5011980;28;20224;-75
2023/11/10 10:47:36;;;;;;;1.77;1.13;;;13.20;65.50;14.80;99289.00;;;;5011116;28;21122;-75
2023/11/10 10:50:05;;;;;;;2.55;0.98;;;13.20;65.40;14.70;99287.00;;;;5010666;28;20294;-75
2023/11/10 10:52:34;;;;;;;2.45;0.98;;;13.20;65.40;14.70;99286.00;;;;5011625;28;20201;-75
2023/11/10 10:55:04;;;;;;;2.15;0.77;;;13.10;65.40;14.70;99284.00;;;;5009963;28;20292;-76
2023/11/10 10:57:34;;;;;;;3.45;1.20;;;13.10;65.40;14.70;99289.00;;;;5011683;28;20247;-76